Time;durP1;ratioP1;P1;durP2;ratioP2;P2;SDS_P1;SDS_P2;PMS_P1;PMS_P2;Temp;Humidity;BMP_temperature;BMP_pressure;BME280_temperature;BME280_humidity;BME280_pressure;Samples;Min_cycle;Max_cycle;Signal;HPM_P1;HPM_P2
2024/03/02 00:00:13;;;;;;;32.70;20.55;;;10.50;99.90;;;;;;5038910;28;20091;-65
2024/03/02 00:02:42;;;;;;;35.42;19.48;;;10.50;99.90;;;;;;5038693;28;20108;-66
2024/03/02 00:05:10;;;;;;;39.22;21.80;;;10.50;99.90;;;;;;5038820;28;20017;-66
2024/03/02 00:07:37;;;;;;;31.30;19.05;;;;;;;;;;5038529;28;20041;-65
2024/03/02 00:10:10;;;;;;;33.97;20.25;;;10.50;99.90;;;;;;5038844;28;20060;-66
2024/03/02 00:12:37;;;;;;;38.03;20.65;;;10.50;99.90;;;;;;5031683;28;20089;-66
2024/03/02 00:15:17;;;;;;;34.88;20.50;;;10.30;99.90;;;;;;5019136;28;20214;-66
2024/03/02 00:17:43;;;;;;;34.85;19.70;;;;;;;;;;5018993;28;20026;-64
2024/03/02 00:20:10;;;;;;;33.55;19.88;;;10.40;99.90;;;;;;5019160;28;20032;-64
2024/03/02 00:22:37;;;;;;;38.45;21.63;;;10.50;99.90;;;;;;5018992;28;20267;-65
2024/03/02 00:25:05;;;;;;;35.72;21.10;;;10.50;99.90;;;;;;5038631;28;20064;-68
2024/03/02 00:27:31;;;;;;;38.83;21.45;;;10.50;99.90;;;;;;5038839;28;20033;-66
2024/03/02 00:29:57;;;;;;;35.63;20.75;;;10.80;99.90;;;;;;5038487;28;20029;-65
2024/03/02 00:32:24;;;;;;;33.53;20.50;;;;;;;;;;5041131;28;20025;-64
2024/03/02 00:34:50;;;;;;;33.45;19.55;;;10.60;99.90;;;;;;5041932;28;20053;-64
2024/03/02 00:37:17;;;;;;;38.85;20.98;;;;;;;;;;5042201;28;20025;-65
2024/03/02 00:39:43;;;;;;;34.25;19.95;;;;;;;;;;5042252;28;20025;-64
2024/03/02 00:42:10;;;;;;;32.08;20.42;;;10.50;99.90;;;;;;5042273;28;20083;-65
2024/03/02 00:44:37;;;;;;;33.40;19.30;;;10.40;99.90;;;;;;5041864;28;20075;-67
2024/03/02 00:47:03;;;;;;;35.22;19.67;;;10.60;99.90;;;;;;5042312;28;20416;-69
2024/03/02 00:49:29;;;;;;;38.42;20.77;;;10.40;99.90;;;;;;5042349;28;20026;-65
2024/03/02 00:51:55;;;;;;;37.92;21.75;;;;;;;;;;5041973;28;20383;-64
2024/03/02 00:54:24;;;;;;;42.88;22.73;;;10.10;99.90;;;;;;5042015;28;20017;-63
2024/03/02 00:56:50;;;;;;;38.80;21.73;;;;;;;;;;5041617;28;20029;-67
2024/03/02 00:59:16;;;;;;;33.30;20.33;;;10.30;99.90;;;;;;5022523;28;20041;-67
2024/03/02 01:01:43;;;;;;;34.97;19.25;;;;;;;;;;5021755;28;20042;-65
2024/03/02 01:04:09;;;;;;;35.08;19.73;;;10.40;99.90;;;;;;5022198;28;20440;-66
2024/03/02 01:06:38;;;;;;;31.95;16.67;;;10.30;99.90;;;;;;5020539;28;20160;-66
2024/03/02 01:09:04;;;;;;;34.97;19.55;;;;;;;;;;5021797;28;20033;-68
2024/03/02 01:11:30;;;;;;;33.22;18.60;;;;;;;;;;5024218;28;20033;-66
2024/03/02 01:13:56;;;;;;;38.10;20.25;;;;;;;;;;5041448;28;20037;-66
2024/03/02 01:16:22;;;;;;;31.63;19.63;;;10.50;99.90;;;;;;5041628;28;20026;-67
2024/03/02 01:18:48;;;;;;;34.15;19.27;;;;;;;;;;5041442;28;20032;-66
2024/03/02 01:21:14;;;;;;;33.70;19.88;;;10.30;99.90;;;;;;5039799;28;20046;-65
2024/03/02 01:23:40;;;;;;;39.58;20.52;;;10.40;99.90;;;;;;5041300;28;20022;-65
2024/03/02 01:26:07;;;;;;;36.97;20.42;;;;;;;;;;5039868;28;20052;-68
2024/03/02 01:28:33;;;;;;;34.25;20.35;;;10.40;99.90;;;;;;5041291;28;20021;-69
2024/03/02 01:31:01;;;;;;;38.90;20.38;;;10.40;99.90;;;;;;5039753;28;20428;-67
2024/03/02 01:33:28;;;;;;;34.10;17.47;;;;;;;;;;5041204;28;20229;-67
2024/03/02 01:35:53;;;;;;;41.67;21.40;;;10.40;99.90;;;;;;5036351;28;20054;-66
2024/03/02 01:38:20;;;;;;;37.20;20.50;;;;;;;;;;5021848;28;20322;-68
2024/03/02 01:40:46;;;;;;;35.13;20.80;;;;;;;;;;5024212;28;20049;-67
2024/03/02 01:43:12;;;;;;;32.47;19.55;;;10.40;99.90;;;;;;5054247;28;20037;-68
2024/03/02 01:45:37;;;;;;;40.35;21.05;;;10.50;99.90;;;;;;5043432;28;20029;-69
2024/03/02 01:48:07;;;;;;;35.33;20.98;;;10.30;99.90;;;;;;5040657;28;20332;-70
2024/03/02 01:50:33;;;;;;;33.60;19.98;;;10.20;99.90;;;;;;5022826;28;20049;-68
2024/03/02 01:53:00;;;;;;;34.78;18.98;;;10.30;99.90;;;;;;5022699;28;20056;-69
2024/03/02 01:55:27;;;;;;;38.60;20.20;;;10.30;99.90;;;;;;5022601;28;20054;-71
2024/03/02 01:57:54;;;;;;;37.28;21.45;;;10.30;99.90;;;;;;5022290;28;20026;-69
2024/03/02 02:00:24;;;;;;;40.33;21.35;;;10.20;99.90;;;;;;5021841;28;20026;-70
2024/03/02 02:02:50;;;;;;;37.88;19.98;;;;;;;;;;5021596;28;20052;-70
2024/03/02 02:05:17;;;;;;;39.63;21.80;;;10.20;99.90;;;;;;5027574;28;20453;-73
2024/03/02 02:07:43;;;;;;;40.55;21.00;;;;;;;;;;5045263;28;20037;-73
2024/03/02 02:10:12;;;;;;;36.00;20.55;;;10.20;99.90;;;;;;5044038;28;20095;-71
2024/03/02 02:12:38;;;;;;;35.13;20.80;;;10.20;99.90;;;;;;5044730;28;20028;-72
2024/03/02 02:15:24;;;;;;;35.40;20.27;;;10.30;99.90;;;;;;5044620;28;20248;-73
2024/03/02 02:17:50;;;;;;;42.53;20.67;;;;;;;;;;5045321;28;20021;-72
2024/03/02 02:20:16;;;;;;;34.05;20.25;;;;;;;;;;5046856;28;20036;-71
2024/03/02 02:22:59;;;;;;;33.38;20.73;;;10.10;99.90;;;;;;5045626;28;20025;-72
2024/03/02 02:25:25;;;;;;;35.78;20.23;;;10.20;99.90;;;;;;5045735;28;20277;-69
2024/03/02 02:27:52;;;;;;;36.95;21.55;;;;;;;;;;5045327;28;20080;-71
2024/03/02 02:30:22;;;;;;;41.08;21.50;;;10.10;99.90;;;;;;5044892;28;20025;-70
2024/03/02 02:32:48;;;;;;;39.30;21.27;;;10.20;99.90;;;;;;5040732;28;20034;-70
2024/03/02 02:35:13;;;;;;;38.08;20.88;;;10.20;99.90;;;;;;5041510;28;20088;-71
2024/03/02 02:37:39;;;;;;;34.60;20.77;;;10.20;99.90;;;;;;5044014;28;20021;-71
2024/03/02 02:40:06;;;;;;;34.83;21.52;;;10.00;99.90;;;;;;5040146;28;20033;-72
2024/03/02 02:42:33;;;;;;;39.08;19.63;;;10.00;99.90;;;;;;5043112;28;20099;-71
2024/03/02 02:44:58;;;;;;;34.50;21.30;;;10.10;99.90;;;;;;5043619;28;20014;-72
2024/03/02 02:47:24;;;;;;;36.70;20.13;;;;;;;;;;5041408;28;20032;-71
2024/03/02 02:49:50;;;;;;;34.63;21.10;;;10.00;99.90;;;;;;5042634;28;20013;-70
2024/03/02 02:52:16;;;;;;;38.25;22.40;;;;;;;;;;5042183;28;20036;-72
2024/03/02 02:54:42;;;;;;;37.17;20.13;;;;;;;;;;5041351;28;20673;-68
2024/03/02 02:57:08;;;;;;;39.67;21.75;;;;;;;;;;5040117;28;20100;-68
2024/03/02 02:59:35;;;;;;;44.60;22.58;;;9.60;99.90;;;;;;5040194;28;20048;-69
2024/03/02 03:02:01;;;;;;;38.97;22.08;;;;;;;;;;5039920;28;20353;-70
2024/03/02 03:04:28;;;;;;;38.13;21.77;;;10.00;99.90;;;;;;5040177;28;20045;-69
2024/03/02 03:06:53;;;;;;;38.53;22.30;;;9.50;99.90;;;;;;5039738;28;20018;-69
2024/03/02 03:09:19;;;;;;;37.33;22.00;;;;;;;;;;5040226;28;20120;-70
2024/03/02 03:11:45;;;;;;;37.20;21.65;;;9.50;99.90;;;;;;5039880;28;20035;-69
2024/03/02 03:14:11;;;;;;;40.38;23.30;;;;;;;;;;5040094;28;20053;-69
2024/03/02 03:16:37;;;;;;;39.22;21.20;;;;;;;;;;5040130;28;20045;-70
2024/03/02 03:19:03;;;;;;;39.38;23.15;;;9.40;99.90;;;;;;5040278;28;20640;-70
2024/03/02 03:21:29;;;;;;;36.70;21.10;;;9.40;99.90;;;;;;5040263;28;20076;-70
2024/03/02 03:23:55;;;;;;;38.30;21.58;;;9.50;99.90;;;;;;5040106;28;20029;-69
2024/03/02 03:26:21;;;;;;;35.40;21.90;;;;;;;;;;5040235;28;20049;-69
2024/03/02 03:28:47;;;;;;;38.08;21.20;;;9.50;99.90;;;;;;5040133;28;20099;-69
2024/03/02 03:31:12;;;;;;;37.20;20.27;;;;;;;;;;5040128;28;20021;-69
2024/03/02 03:33:38;;;;;;;34.70;21.90;;;;;;;;;;5040208;28;20025;-69
2024/03/02 03:36:04;;;;;;;36.80;20.08;;;9.60;99.90;;;;;;5033016;28;20099;-69
2024/03/02 03:38:30;;;;;;;41.80;23.10;;;9.30;99.90;;;;;;5019865;28;20409;-69
2024/03/02 03:40:56;;;;;;;37.90;20.20;;;;;;;;;;5019665;28;20030;-68
2024/03/02 03:43:22;;;;;;;40.92;20.67;;;;;;;;;;5028682;28;20029;-69
2024/03/02 03:45:48;;;;;;;46.20;23.67;;;;;;;;;;5039437;28;20105;-69
2024/03/02 03:48:14;;;;;;;36.63;21.20;;;;;;;;;;5039155;28;20053;-68
2024/03/02 03:50:42;;;;;;;41.08;22.25;;;9.60;99.90;;;;;;5039350;28;20093;-68
2024/03/02 03:53:08;;;;;;;33.83;20.10;;;;;;;;;;5038987;28;20022;-68
2024/03/02 03:55:33;;;;;;;35.95;20.23;;;9.20;99.90;;;;;;5039024;28;20030;-69
2024/03/02 03:58:00;;;;;;;43.35;20.38;;;;;;;;;;5039032;28;20021;-68
2024/03/02 04:00:27;;;;;;;37.88;21.48;;;;;;;;;;5039173;28;20064;-69
2024/03/02 04:02:54;;;;;;;42.20;21.95;;;;;;;;;;5039158;28;20030;-69
2024/03/02 04:05:20;;;;;;;37.97;19.90;;;;;;;;;;5038936;28;20052;-69
2024/03/02 04:07:46;;;;;;;36.60;21.25;;;;;;;;;;5042841;28;20065;-69
2024/03/02 04:10:12;;;;;;;41.53;21.20;;;;;;;;;;5042726;28;20026;-69
2024/03/02 04:12:39;;;;;;;38.00;21.60;;;9.70;99.90;;;;;;5043004;28;20049;-69
2024/03/02 04:15:06;;;;;;;36.83;20.45;;;;;;;;;;5042916;28;20056;-68
2024/03/02 04:17:33;;;;;;;33.03;19.85;;;9.40;99.90;;;;;;5041329;28;20026;-67
2024/03/02 04:20:04;;;;;;;37.97;22.27;;;9.40;99.90;;;;;;5042729;28;20033;-66
2024/03/02 04:22:30;;;;;;;39.83;22.38;;;9.50;99.90;;;;;;5042246;28;20037;-66
2024/03/02 04:24:56;;;;;;;33.28;20.85;;;9.50;99.90;;;;;;5042323;28;20028;-65
2024/03/02 04:27:22;;;;;;;41.50;22.50;;;9.50;99.90;;;;;;5042541;28;20041;-67
2024/03/02 04:29:47;;;;;;;37.92;20.92;;;9.40;99.90;;;;;;5042452;28;20305;-67
2024/03/02 04:32:13;;;;;;;42.63;20.77;;;;;;;;;;5042101;28;20323;-66
2024/03/02 04:34:39;;;;;;;39.40;20.85;;;9.20;99.90;;;;;;5042280;28;20045;-70
2024/03/02 04:37:05;;;;;;;42.22;21.17;;;;;;;;;;5042346;28;20060;-70
2024/03/02 04:39:31;;;;;;;42.35;22.15;;;9.30;99.90;;;;;;5042016;28;20333;-70
2024/03/02 04:41:58;;;;;;;41.53;22.20;;;;;;;;;;5042139;28;20052;-68
2024/03/02 04:44:24;;;;;;;40.22;22.50;;;;;;;;;;5048069;28;20178;-69
2024/03/02 04:46:50;;;;;;;40.22;22.05;;;;;;;;;;5046562;28;20029;-68
2024/03/02 04:49:16;;;;;;;44.47;22.08;;;;;;;;;;5042073;28;20099;-68
2024/03/02 04:51:42;;;;;;;45.03;23.27;;;;;;;;;;5042067;28;20033;-66
2024/03/02 04:54:08;;;;;;;39.47;23.50;;;9.30;99.90;;;;;;5041963;28;20025;-68
2024/03/02 04:56:49;;;;;;;42.67;24.60;;;9.40;99.90;;;;;;5041955;28;20328;-70
2024/03/02 04:59:18;;;;;;;44.78;23.58;;;9.10;99.90;;;;;;5041225;28;20197;-68
2024/03/02 05:01:44;;;;;;;45.03;23.92;;;9.20;99.90;;;;;;5042008;28;20108;-67
2024/03/02 05:04:13;;;;;;;43.92;25.13;;;;;;;;;;5024210;28;20036;-67
2024/03/02 05:06:42;;;;;;;;;;;9.20;99.90;;;;;;5042528;28;20025;-69
2024/03/02 05:09:08;;;;;;;42.95;25.13;;;8.90;99.90;;;;;;5041930;28;19913;-69
2024/03/02 05:14:06;;;;;;;45.40;25.58;;;9.10;99.90;;;;;;5040882;28;20025;-70
2024/03/02 05:16:36;;;;;;;45.75;24.17;;;9.10;99.90;;;;;;5040858;28;20275;-67
2024/03/02 05:19:06;;;;;;;41.70;24.05;;;9.50;99.90;;;;;;5040791;28;20052;-68
2024/03/02 05:21:34;;;;;;;51.22;26.50;;;8.80;99.90;;;;;;5040567;28;20327;-68
2024/03/02 05:24:00;;;;;;;40.38;23.30;;;;;;;;;;5040906;28;20036;-66
2024/03/02 05:26:26;;;;;;;51.72;27.70;;;;;;;;;;5040868;28;20153;-68
2024/03/02 05:28:52;;;;;;;43.47;26.00;;;9.00;99.90;;;;;;5040542;28;20318;-67
2024/03/02 05:31:18;;;;;;;43.28;24.38;;;;;;;;;;5041472;28;20029;-66
2024/03/02 05:33:44;;;;;;;44.88;26.45;;;9.10;99.90;;;;;;5041392;28;20029;-65
2024/03/02 05:36:10;;;;;;;46.03;26.77;;;;;;;;;;5029964;28;20361;-67
2024/03/02 05:38:36;;;;;;;48.25;27.17;;;;;;;;;;5021368;28;20077;-68
2024/03/02 05:41:04;;;;;;;45.40;25.98;;;;;;;;;;5021367;28;20033;-67
2024/03/02 05:43:30;;;;;;;46.00;25.65;;;;;;;;;;5021316;28;20025;-66
2024/03/02 05:45:56;;;;;;;51.78;26.77;;;8.90;99.90;;;;;;5023704;28;20337;-65
2024/03/02 05:48:22;;;;;;;51.78;27.42;;;;;;;;;;5040727;28;20032;-65
2024/03/02 05:50:48;;;;;;;46.42;27.20;;;;;;;;;;5041074;28;20041;-69
2024/03/02 05:53:15;;;;;;;51.13;26.63;;;;;;;;;;5040803;28;20022;-69
2024/03/02 05:55:41;;;;;;;45.88;27.55;;;;;;;;;;5040631;28;20063;-69
2024/03/02 06:00:33;;;;;;;55.42;28.58;;;8.90;99.90;;;;;;5040663;28;20025;-68
2024/03/02 06:02:58;;;;;;;49.67;26.35;;;8.80;99.90;;;;;;5040238;28;20030;-68
2024/03/02 06:05:24;;;;;;;49.45;27.15;;;9.10;99.90;;;;;;5040396;28;20032;-67
2024/03/02 06:07:50;;;;;;;50.30;26.25;;;9.00;99.90;;;;;;5040370;28;20234;-68
2024/03/02 06:10:17;;;;;;;48.13;27.35;;;;;;;;;;5039202;28;20071;-65
2024/03/02 06:12:43;;;;;;;43.70;26.17;;;9.00;99.90;;;;;;5040317;28;20029;-66
2024/03/02 06:15:09;;;;;;;46.22;25.70;;;9.00;99.90;;;;;;5040236;28;20028;-67
2024/03/02 06:17:38;;;;;;;48.53;26.90;;;8.90;99.90;;;;;;5040249;28;20030;-67
2024/03/02 06:20:04;;;;;;;45.15;24.88;;;8.90;99.90;;;;;;5040184;28;20356;-69
2024/03/02 06:22:29;;;;;;;45.42;25.33;;;8.90;99.90;;;;;;5040235;28;20235;-67
2024/03/02 06:24:56;;;;;;;43.53;25.00;;;;;;;;;;5040266;28;20269;-68
2024/03/02 06:27:22;;;;;;;44.83;25.10;;;9.00;99.90;;;;;;5039889;28;20029;-68
2024/03/02 06:29:48;;;;;;;49.05;24.95;;;;;;;;;;5039681;28;20032;-68
2024/03/02 06:32:14;;;;;;;45.28;25.35;;;9.10;99.90;;;;;;5039208;28;20022;-69
2024/03/02 06:34:40;;;;;;;50.22;28.20;;;9.00;99.90;;;;;;5039826;28;20065;-68
2024/03/02 06:37:06;;;;;;;53.28;26.80;;;;;;;;;;5039466;28;20028;-66
2024/03/02 06:39:33;;;;;;;44.75;25.88;;;;;;;;;;5039850;28;20025;-67
2024/03/02 06:42:00;;;;;;;50.95;26.38;;;9.30;99.90;;;;;;5039756;28;20025;-67
2024/03/02 06:44:26;;;;;;;46.78;26.50;;;;;;;;;;5039959;28;20021;-67
2024/03/02 06:46:52;;;;;;;50.15;29.10;;;;;;;;;;5039887;28;20041;-68
2024/03/02 06:49:18;;;;;;;49.67;26.63;;;;;;;;;;5039676;28;20066;-67
2024/03/02 06:51:44;;;;;;;49.22;27.35;;;9.10;99.90;;;;;;5038466;28;20347;-67
2024/03/02 06:54:10;;;;;;;52.22;28.08;;;;;;;;;;5039531;28;20017;-67
2024/03/02 06:56:38;;;;;;;54.50;27.45;;;9.20;99.90;;;;;;5039524;28;20041;-67
2024/03/02 06:59:04;;;;;;;43.40;23.40;;;9.10;99.90;;;;;;5039778;28;20033;-67
2024/03/02 07:01:30;;;;;;;51.65;27.25;;;;;;;;;;5039362;28;20076;-65
2024/03/02 07:03:56;;;;;;;50.15;28.80;;;9.10;99.90;;;;;;5039674;28;20027;-66
2024/03/02 07:06:21;;;;;;;51.05;28.80;;;9.10;99.90;;;;;;5039670;28;20033;-66
2024/03/02 07:08:47;;;;;;;48.92;26.35;;;;;;;;;;5039707;28;20029;-66
2024/03/02 07:11:13;;;;;;;48.83;26.65;;;;;;;;;;5039215;28;20187;-66
2024/03/02 07:13:40;;;;;;;50.67;28.70;;;;;;;;;;5039436;28;20109;-67
2024/03/02 07:16:24;;;;;;;48.10;27.05;;;;;;;;;;5039179;28;20218;-65
2024/03/02 07:18:51;;;;;;;58.17;27.75;;;;;;;;;;5039079;28;20034;-66
2024/03/02 07:21:17;;;;;;;45.30;26.60;;;9.70;99.90;;;;;;5039209;28;20100;-65
2024/03/02 07:23:43;;;;;;;42.80;26.08;;;9.40;99.90;;;;;;5039440;28;20029;-66
2024/03/02 07:26:10;;;;;;;45.78;27.17;;;;;;;;;;5039118;28;20029;-66
2024/03/02 07:28:36;;;;;;;44.75;27.48;;;9.50;99.90;;;;;;5034309;28;20059;-67
2024/03/02 07:31:04;;;;;;;47.65;26.98;;;9.70;99.90;;;;;;5030287;28;20042;-68
2024/03/02 07:33:31;;;;;;;48.53;27.25;;;9.60;99.90;;;;;;5019243;28;20322;-66
2024/03/02 07:35:59;;;;;;;41.70;25.60;;;10.00;99.90;;;;;;5032655;28;20050;-66
2024/03/02 07:38:25;;;;;;;50.13;28.02;;;9.60;99.90;;;;;;5019591;28;20120;-66
2024/03/02 07:40:51;;;;;;;45.05;25.75;;;9.90;99.90;;;;;;5020131;28;20037;-66
2024/03/02 07:43:19;;;;;;;44.72;24.45;;;9.70;99.90;;;;;;5026020;28;20053;-66
2024/03/02 07:45:45;;;;;;;50.47;27.08;;;;;;;;;;5042962;28;20064;-66
2024/03/02 07:48:11;;;;;;;47.53;27.48;;;;;;;;;;5031458;28;20040;-66
2024/03/02 07:50:38;;;;;;;49.95;28.02;;;;;;;;;;5055393;28;20020;-68
2024/03/02 07:53:05;;;;;;;51.17;27.55;;;9.70;99.90;;;;;;5043099;28;20253;-67
2024/03/02 07:55:31;;;;;;;42.78;25.90;;;10.40;99.90;;;;;;5043316;28;20071;-68
2024/03/02 07:57:57;;;;;;;44.97;26.45;;;9.80;99.90;;;;;;5043957;28;20052;-65
2024/03/02 08:00:23;;;;;;;45.15;26.48;;;9.70;99.90;;;;;;5024490;28;20187;-66
2024/03/02 08:02:53;;;;;;;49.65;27.13;;;10.40;99.90;;;;;;5043533;28;20051;-67
2024/03/02 08:05:19;;;;;;;52.80;28.98;;;;;;;;;;5043682;28;20348;-69
2024/03/02 08:07:45;;;;;;;49.58;27.98;;;10.10;99.90;;;;;;5044141;28;20113;-67
2024/03/02 08:10:11;;;;;;;50.70;28.48;;;10.10;99.90;;;;;;5044161;28;20127;-67
2024/03/02 08:12:37;;;;;;;48.63;27.35;;;10.10;99.90;;;;;;5044332;28;20310;-67
2024/03/02 08:15:04;;;;;;;43.72;26.15;;;10.20;99.90;;;;;;5045184;28;20344;-69
2024/03/02 08:17:30;;;;;;;46.97;27.42;;;10.30;99.90;;;;;;5045011;28;20026;-66
2024/03/02 08:19:57;;;;;;;45.42;26.63;;;10.20;99.90;;;;;;5044406;28;20030;-70
2024/03/02 08:22:25;;;;;;;46.95;28.67;;;10.00;99.90;;;;;;5044869;28;20277;-72
2024/03/02 08:24:51;;;;;;;42.60;25.60;;;;;;;;;;5030166;28;20028;-66
2024/03/02 08:27:17;;;;;;;45.42;26.67;;;10.10;99.90;;;;;;5033088;28;20033;-71
2024/03/02 08:29:43;;;;;;;46.42;26.05;;;10.30;99.90;;;;;;5044738;28;20021;-67
2024/03/02 08:32:09;;;;;;;46.47;26.95;;;;;;;;;;5030233;28;20053;-70
2024/03/02 08:34:35;;;;;;;48.00;27.90;;;10.30;99.90;;;;;;5027047;28;20061;-68
2024/03/02 08:37:04;;;;;;;49.30;27.55;;;10.50;99.90;;;;;;5049814;28;20047;-70
2024/03/02 08:39:30;;;;;;;47.33;26.58;;;;;;;;;;5042910;28;20399;-67
2024/03/02 08:41:56;;;;;;;47.13;26.83;;;;;;;;;;5039479;28;20341;-68
2024/03/02 08:44:22;;;;;;;40.42;25.02;;;10.40;99.90;;;;;;5037029;28;20112;-66
2024/03/02 08:46:47;;;;;;;43.30;25.90;;;10.60;99.90;;;;;;5041614;28;20028;-68
2024/03/02 08:49:13;;;;;;;42.08;25.55;;;10.60;99.90;;;;;;5041763;28;20342;-68
2024/03/02 08:51:39;;;;;;;38.38;23.48;;;10.50;99.90;;;;;;5040834;28;20017;-68
2024/03/02 08:54:05;;;;;;;36.08;23.85;;;;;;;;;;5041745;28;20052;-70
2024/03/02 08:56:31;;;;;;;35.63;22.80;;;;;;;;;;5040994;28;20025;-68
2024/03/02 08:58:57;;;;;;;37.30;23.67;;;10.80;99.90;;;;;;5040577;28;20304;-68
2024/03/02 09:01:23;;;;;;;39.95;22.67;;;;;;;;;;5040312;28;20050;-68
2024/03/02 09:03:50;;;;;;;39.28;23.75;;;10.60;99.90;;;;;;5040581;28;20021;-68
2024/03/02 09:06:20;;;;;;;40.10;24.73;;;10.80;99.90;;;;;;5040401;28;20067;-68
2024/03/02 09:08:46;;;;;;;39.95;23.88;;;;;;;;;;5040213;28;20033;-68
2024/03/02 09:11:12;;;;;;;37.15;22.40;;;;;;;;;;5040489;28;20031;-68
2024/03/02 09:13:38;;;;;;;36.40;22.63;;;10.70;99.90;;;;;;5040508;28;20017;-68
2024/03/02 09:16:04;;;;;;;34.28;23.05;;;11.10;99.90;;;;;;5037209;28;20043;-68
2024/03/02 09:18:31;;;;;;;36.25;23.00;;;11.00;99.90;;;;;;5040081;28;20363;-68
2024/03/02 09:20:56;;;;;;;36.42;20.95;;;10.90;99.90;;;;;;5039840;28;20041;-68
2024/03/02 09:23:22;;;;;;;33.65;21.67;;;;;;;;;;5040288;28;20033;-68
2024/03/02 09:25:48;;;;;;;33.75;21.83;;;11.10;99.90;;;;;;5038772;28;20028;-68
2024/03/02 09:28:15;;;;;;;32.08;20.88;;;10.90;99.90;;;;;;5040162;28;20229;-68
2024/03/02 09:30:41;;;;;;;35.22;20.27;;;;;;;;;;5039912;28;20318;-67
2024/03/02 09:33:07;;;;;;;30.67;19.65;;;10.80;99.90;;;;;;5034327;28;20029;-68
2024/03/02 09:35:34;;;;;;;29.45;19.60;;;10.70;99.90;;;;;;4998324;28;1115698;-68
2024/03/02 09:38:00;;;;;;;30.42;19.15;;;11.00;99.90;;;;;;5049055;28;20041;-68
2024/03/02 09:40:25;;;;;;;29.55;18.42;;;10.40;99.90;;;;;;5060721;28;20100;-68
2024/03/02 09:42:53;;;;;;;31.15;18.88;;;11.10;99.90;;;;;;5022716;28;20029;-68
2024/03/02 09:45:23;;;;;;;27.17;16.98;;;10.70;99.90;;;;;;5034984;28;20029;-68
2024/03/02 09:47:49;;;;;;;25.30;17.20;;;10.60;99.90;;;;;;5040941;28;20028;-67
2024/03/02 09:50:15;;;;;;;24.00;15.82;;;;;;;;;;5040682;28;20029;-68
2024/03/02 09:52:50;;;;;;;21.00;15.18;;;10.60;99.90;;;;;;5040637;28;20028;-67
2024/03/02 09:55:17;;;;;;;25.38;16.77;;;10.50;99.90;;;;;;5033075;28;20092;-68
2024/03/02 09:57:44;;;;;;;24.25;15.38;;;;;;;;;;5045936;28;20048;-68
2024/03/02 10:00:14;;;;;;;24.30;16.20;;;10.60;99.90;;;;;;5020973;28;20024;-67
2024/03/02 10:02:41;;;;;;;23.45;15.48;;;10.60;99.90;;;;;;5037564;28;20033;-68
2024/03/02 10:05:12;;;;;;;22.40;16.23;;;10.60;99.90;;;;;;5040030;28;20312;-68
2024/03/02 10:07:37;;;;;;;27.30;16.50;;;10.50;99.90;;;;;;5040389;28;20356;-68
2024/03/02 10:10:14;;;;;;;24.05;15.25;;;10.60;99.90;;;;;;5031667;28;20026;-72
2024/03/02 10:12:41;;;;;;;22.75;15.18;;;;;;;;;;5021159;28;20025;-67
2024/03/02 10:15:09;;;;;;;25.35;16.38;;;10.90;99.90;;;;;;5027448;28;20053;-68
2024/03/02 10:17:35;;;;;;;23.40;15.30;;;10.70;99.90;;;;;;5039231;28;20080;-68
2024/03/02 10:20:23;;;;;;;22.85;15.75;;;10.50;99.90;;;;;;5034528;28;20034;-68
2024/03/02 10:22:49;;;;;;;27.40;17.02;;;;;;;;;;5020492;28;20041;-67
2024/03/02 10:25:34;;;;;;;23.58;16.60;;;10.40;99.90;;;;;;5020308;28;20199;-67
2024/03/02 10:28:00;;;;;;;23.00;15.88;;;10.50;99.90;;;;;;5020584;28;20036;-66
2024/03/02 10:30:27;;;;;;;21.50;14.27;;;10.30;99.90;;;;;;5020638;28;20102;-66
2024/03/02 10:32:55;;;;;;;21.25;14.85;;;10.40;99.90;;;;;;5029979;28;20325;-67
2024/03/02 10:35:26;;;;;;;21.38;14.30;;;10.30;99.90;;;;;;5044138;28;20041;-67
2024/03/02 10:37:53;;;;;;;24.25;14.68;;;10.50;99.90;;;;;;5060682;28;20029;-69
2024/03/02 10:40:23;;;;;;;20.58;14.13;;;10.30;99.90;;;;;;5060334;28;20032;-71
2024/03/02 10:42:51;;;;;;;20.83;13.05;;;10.40;99.90;;;;;;5060061;28;20112;-68
2024/03/02 10:45:17;;;;;;;19.40;12.70;;;;;;;;;;5060005;28;20051;-69
2024/03/02 10:47:46;;;;;;;21.23;14.30;;;10.20;99.90;;;;;;5060628;28;20048;-68
2024/03/02 10:50:12;;;;;;;21.25;13.07;;;;;;;;;;5060078;28;20514;-69
2024/03/02 10:52:42;;;;;;;19.17;13.82;;;10.20;99.90;;;;;;5046488;28;20137;-67
2024/03/02 10:55:12;;;;;;;20.52;13.93;;;10.30;99.90;;;;;;5051269;28;20105;-67
2024/03/02 10:57:54;;;;;;;21.67;14.55;;;10.50;99.90;;;;;;5020401;28;20207;-67
2024/03/02 11:00:24;;;;;;;21.20;13.60;;;10.40;99.90;;;;;;5039526;28;20037;-67
2024/03/02 11:02:52;;;;;;;20.98;14.00;;;10.60;99.90;;;;;;5040142;28;20092;-68
2024/03/02 11:05:27;;;;;;;17.35;12.52;;;10.40;99.90;;;;;;5038624;28;20036;-67
2024/03/02 11:08:16;;;;;;;24.20;14.07;;;10.40;99.90;;;;;;5039831;28;20638;-68
2024/03/02 11:10:47;;;;;;;18.90;12.75;;;10.40;99.90;;;;;;5039464;28;20036;-67
2024/03/02 11:13:14;;;;;;;16.88;12.55;;;10.40;99.90;;;;;;5039600;28;20036;-68
2024/03/02 11:15:40;;;;;;;19.95;13.07;;;;;;;;;;5039234;28;20068;-68
2024/03/02 11:18:08;;;;;;;21.25;13.00;;;10.10;99.90;;;;;;5039272;28;20368;-68
2024/03/02 11:20:39;;;;;;;19.40;13.60;;;10.30;99.90;;;;;;5039558;28;20037;-70
2024/03/02 11:23:06;;;;;;;22.75;14.40;;;10.40;99.90;;;;;;5039929;28;20309;-68
2024/03/02 11:25:32;;;;;;;20.40;14.02;;;10.40;99.90;;;;;;5038202;28;20033;-67
2024/03/02 11:28:04;;;;;;;19.17;12.38;;;10.30;99.90;;;;;;5039190;28;20029;-67
2024/03/02 11:30:33;;;;;;;19.85;12.73;;;10.30;99.90;;;;;;5040506;28;20045;-67
2024/03/02 11:33:10;;;;;;;19.55;13.25;;;10.50;99.90;;;;;;5039237;28;20056;-66
2024/03/02 11:35:42;;;;;;;19.30;14.02;;;10.40;99.90;;;;;;5039006;28;20064;-67
2024/03/02 11:38:10;;;;;;;18.83;13.00;;;10.30;99.90;;;;;;5039019;28;20044;-66
2024/03/02 11:40:36;;;;;;;19.52;13.77;;;;;;;;;;5035377;28;20340;-67
2024/03/02 11:43:02;;;;;;;21.48;13.85;;;10.40;99.90;;;;;;5038604;28;20076;-66
2024/03/02 11:45:29;;;;;;;17.17;11.85;;;10.50;99.90;;;;;;5038695;28;20029;-66
2024/03/02 11:47:59;;;;;;;18.38;11.52;;;10.70;99.90;;;;;;5023290;28;20038;-66
2024/03/02 11:50:33;;;;;;;17.17;11.88;;;10.80;99.90;;;;;;5019058;28;20068;-66
2024/03/02 11:52:59;;;;;;;14.82;11.57;;;;;;;;;;5019150;28;20025;-67
2024/03/02 11:55:30;;;;;;;15.93;10.77;;;11.00;99.90;;;;;;5019020;28;20226;-66
2024/03/02 11:57:56;;;;;;;11.35;8.48;;;10.90;99.90;;;;;;5019409;28;20021;-67
2024/03/02 12:00:22;;;;;;;10.73;8.68;;;11.00;99.90;;;;;;5025132;28;20068;-66
2024/03/02 12:03:09;;;;;;;10.95;8.63;;;10.90;99.90;;;;;;5039035;28;20021;-66
2024/03/02 12:05:36;;;;;;;11.02;8.48;;;10.90;99.90;;;;;;5038721;28;20029;-67
2024/03/02 12:08:06;;;;;;;13.15;8.90;;;10.80;99.90;;;;;;5038764;28;20028;-67
2024/03/02 12:10:34;;;;;;;13.38;9.35;;;10.80;99.90;;;;;;5039045;28;20022;-67
2024/03/02 12:13:06;;;;;;;10.57;7.78;;;10.90;99.90;;;;;;5038946;28;20665;-66
2024/03/02 12:15:34;;;;;;;11.75;8.55;;;10.90;99.90;;;;;;5024942;28;20041;-66
2024/03/02 12:18:01;;;;;;;12.97;8.77;;;11.00;99.90;;;;;;5030768;28;20030;-67
2024/03/02 12:20:29;;;;;;;12.88;8.50;;;11.10;99.90;;;;;;5038911;28;20053;-66
2024/03/02 12:22:58;;;;;;;11.00;8.65;;;11.60;99.90;;;;;;5038662;28;20033;-66
2024/03/02 12:25:24;;;;;;;10.48;7.97;;;11.40;99.90;;;;;;5037456;28;20021;-67
2024/03/02 12:27:53;;;;;;;10.57;8.02;;;11.40;99.90;;;;;;5040998;28;20269;-66
2024/03/02 12:30:19;;;;;;;10.57;8.32;;;11.40;99.90;;;;;;5042330;28;20021;-66
2024/03/02 12:32:46;;;;;;;9.05;7.10;;;11.40;99.90;;;;;;5042441;28;20031;-66
2024/03/02 12:35:15;;;;;;;10.30;7.63;;;11.50;99.90;;;;;;5041789;28;20058;-66
2024/03/02 12:37:44;;;;;;;9.23;7.32;;;11.40;99.90;;;;;;5042073;28;20036;-66
2024/03/02 12:40:14;;;;;;;9.75;7.40;;;11.30;99.90;;;;;;5032661;28;20108;-66
2024/03/02 12:42:41;;;;;;;11.10;7.93;;;11.20;99.90;;;;;;5022417;28;20030;-67
2024/03/02 12:45:08;;;;;;;10.48;7.78;;;;;;;;;;5022435;28;20033;-66
2024/03/02 12:47:34;;;;;;;10.43;7.72;;;11.20;99.90;;;;;;5022198;28;20030;-67
2024/03/02 12:50:07;;;;;;;8.50;7.03;;;11.10;99.90;;;;;;5022674;28;20026;-69
2024/03/02 12:52:33;;;;;;;10.02;7.45;;;;;;;;;;5038254;28;20088;-66
2024/03/02 12:55:03;;;;;;;10.82;7.60;;;11.10;99.90;;;;;;5041761;28;20361;-66
2024/03/02 12:57:29;;;;;;;;;;;11.20;99.90;;;;;;5042126;28;20334;-66
2024/03/02 13:00:08;;;;;;;9.52;7.57;;;11.20;99.90;;;;;;5041765;28;19908;-66
2024/03/02 13:02:35;;;;;;;9.80;7.38;;;11.30;99.90;;;;;;5041663;28;20068;-65
2024/03/02 13:05:01;;;;;;;8.70;7.38;;;11.40;99.90;;;;;;5041898;28;20029;-66
2024/03/02 13:07:27;;;;;;;9.27;7.28;;;11.30;99.90;;;;;;5041842;28;20030;-66